createdAt,value
2022-08-05T00:04:24.922Z,3.42
2022-08-05T00:09:22.299Z,3.30
2022-08-05T00:14:19.734Z,3.92
2022-08-05T00:19:17.433Z,3.53
2022-08-05T00:24:31.240Z,3.45
2022-08-05T00:29:37.767Z,5.18
2022-08-05T00:34:56.931Z,4.90
2022-08-05T00:39:57.923Z,4.68
2022-08-05T00:44:56.519Z,3.53
2022-08-05T00:49:54.700Z,4.00
2022-08-05T00:54:53.363Z,3.80
2022-08-05T00:59:54.134Z,7.55
2022-08-05T01:04:51.788Z,6.50
2022-08-05T01:09:55.511Z,4.57
2022-08-05T01:14:58.769Z,8.15
2022-08-05T01:20:22.263Z,5.90
2022-08-05T01:25:41.572Z,5.28
2022-08-05T01:30:46.529Z,6.70
2022-08-05T01:35:53.413Z,4.00
2022-08-05T01:40:52.539Z,6.53
2022-08-05T01:45:56.219Z,7.13
2022-08-05T01:55:59.093Z,5.75
2022-08-05T02:01:06.027Z,7.03
2022-08-05T02:06:37.892Z,6.72
2022-08-05T02:11:48.141Z,7.90
2022-08-05T02:16:54.830Z,6.95
2022-08-05T02:22:02.239Z,6.18
2022-08-05T02:27:09.995Z,8.35
2022-08-05T02:32:24.259Z,5.05
2022-08-05T02:37:40.065Z,6.70
2022-08-05T02:42:42.711Z,8.52
2022-08-05T02:48:45.562Z,6.82
2022-08-05T02:54:04.048Z,4.88
2022-08-05T02:59:02.428Z,6.97
2022-08-05T03:04:14.280Z,6.45
2022-08-05T03:09:17.874Z,15.90
2022-08-05T03:14:27.011Z,10.85
2022-08-05T03:19:33.853Z,7.65
2022-08-05T03:24:34.034Z,9.57
2022-08-05T03:29:46.065Z,11.32
2022-08-05T03:34:55.472Z,9.63
2022-08-05T03:39:58.990Z,8.60
2022-08-05T03:44:58.754Z,11.02
2022-08-05T03:49:56.329Z,11.60
2022-08-05T03:55:52.149Z,10.20
2022-08-05T04:00:21.467Z,8.20
2022-08-05T04:05:23.137Z,9.70
2022-08-05T04:10:24.200Z,14.63
2022-08-05T04:15:33.294Z,11.15
2022-08-05T04:20:41.339Z,10.07
2022-08-05T04:26:00.413Z,11.65
2022-08-05T04:31:10.868Z,15.02
2022-08-05T04:36:45.080Z,8.80
2022-08-05T04:42:12.026Z,10.38
2022-08-05T04:48:01.869Z,5.55
2022-08-05T04:53:29.238Z,11.80
2022-08-05T05:00:01.607Z,23.45
2022-08-05T05:05:16.563Z,10.93
2022-08-05T05:11:05.966Z,6.18
2022-08-05T05:16:44.619Z,6.32
2022-08-05T05:21:47.688Z,8.98
2022-08-05T05:26:46.583Z,8.48
2022-08-05T05:31:49.929Z,8.70
2022-08-05T05:36:51.150Z,4.90
2022-08-05T05:41:54.371Z,8.38
2022-08-05T05:46:56.583Z,7.18
2022-08-05T05:51:55.756Z,6.15
2022-08-05T05:56:58.982Z,12.13
2022-08-05T06:01:58.218Z,8.05
2022-08-05T06:07:07.784Z,8.73
2022-08-05T06:12:12.149Z,22.05
2022-08-05T06:17:21.954Z,12.35
2022-08-05T06:22:29.895Z,6.82
2022-08-05T06:28:11.315Z,25.33
2022-08-05T06:32:50.691Z,53.15
2022-08-05T06:37:57.826Z,58.03
2022-08-05T06:43:04.203Z,43.92
2022-08-05T06:48:52.857Z,31.48
2022-08-05T06:53:31.414Z,25.80
2022-08-05T06:58:47.383Z,21.38
2022-08-05T07:03:49.838Z,17.05
2022-08-05T07:08:59.152Z,11.05
2022-08-05T07:14:29.224Z,25.65
2022-08-05T07:25:21.828Z,15.48
2022-08-05T07:30:30.685Z,19.77
2022-08-05T07:36:02.995Z,13.80
2022-08-05T07:41:16.514Z,7.18
2022-08-05T07:46:25.687Z,9.43
2022-08-05T07:51:40.421Z,7.30
2022-08-05T07:57:13.611Z,7.35
2022-08-05T08:02:15.325Z,19.17
2022-08-05T08:07:22.456Z,5.95
2022-08-05T08:12:37.143Z,12.55
2022-08-05T08:17:36.995Z,7.35
2022-08-05T08:22:35.607Z,6.93
2022-08-05T08:27:44.851Z,14.93
2022-08-05T08:32:48.367Z,5.73
2022-08-05T08:38:16.402Z,4.65
2022-08-05T08:45:20.313Z,7.38
2022-08-05T08:55:19.449Z,4.35
2022-08-05T09:00:33.773Z,5.38
2022-08-05T09:05:38.221Z,4.30
2022-08-05T09:16:34.783Z,4.70
2022-08-05T09:28:08.902Z,4.53
2022-08-05T09:33:18.934Z,5.70
2022-08-05T09:38:29.605Z,5.72
2022-08-05T09:49:54.762Z,5.70
2022-08-05T09:54:52.669Z,8.80
2022-08-05T09:59:55.262Z,7.25
2022-08-05T10:05:21.443Z,3.78
2022-08-05T10:11:12.924Z,10.10
2022-08-05T10:16:30.501Z,8.52
2022-08-05T10:21:42.395Z,9.95
2022-08-05T10:26:51.604Z,14.52
2022-08-05T10:32:52.604Z,6.43
2022-08-05T10:37:21.833Z,10.20
2022-08-05T10:42:54.419Z,5.90
2022-08-05T10:48:52.308Z,6.97
2022-08-05T10:54:01.523Z,5.20
2022-08-05T11:00:03.391Z,9.88
2022-08-05T11:04:55.495Z,4.70
2022-08-05T11:10:03.627Z,7.32
2022-08-05T11:15:58.870Z,5.82
2022-08-05T11:21:12.968Z,4.60
2022-08-05T11:26:32.050Z,5.38
2022-08-05T11:31:56.778Z,8.18
2022-08-05T11:37:01.959Z,8.23
2022-08-05T11:42:28.016Z,5.63
2022-08-05T11:47:49.763Z,4.03
2022-08-05T11:53:11.644Z,3.80
2022-08-05T11:58:19.160Z,7.50
2022-08-05T12:03:28.639Z,10.68
2022-08-05T12:08:31.441Z,8.95
2022-08-05T12:13:48.790Z,7.53
2022-08-05T12:18:52.186Z,3.67
2022-08-05T12:23:59.867Z,6.57
2022-08-05T12:28:58.376Z,5.00
2022-08-05T12:33:56.887Z,6.10
2022-08-05T12:39:00.402Z,11.95
2022-08-05T12:44:34.371Z,3.72
2022-08-05T12:50:04.369Z,5.20
2022-08-05T12:55:00.753Z,3.65
2022-08-05T13:02:01.451Z,6.18
2022-08-05T13:05:43.044Z,6.82
2022-08-05T13:10:50.621Z,5.50
2022-08-05T13:15:52.832Z,5.07
2022-08-05T13:21:21.161Z,5.15
2022-08-05T13:26:30.330Z,5.55
2022-08-05T13:31:33.899Z,5.25
2022-08-05T13:36:45.923Z,5.38
2022-08-05T13:41:45.567Z,6.18
2022-08-05T13:47:02.438Z,12.52
2022-08-05T13:52:11.228Z,7.40
2022-08-05T13:57:10.338Z,4.45
2022-08-05T14:02:42.356Z,4.68
2022-08-05T14:08:00.249Z,6.10
2022-08-05T14:13:07.655Z,8.07
2022-08-05T14:18:05.236Z,4.38
2022-08-05T14:23:19.295Z,3.25
2022-08-05T14:28:52.421Z,7.13
2022-08-05T14:34:11.865Z,9.30
2022-08-05T14:39:23.167Z,11.43
2022-08-05T14:44:48.555Z,4.85
2022-08-05T14:49:59.505Z,4.63
2022-08-05T14:54:59.020Z,6.32
2022-08-05T15:00:04.755Z,5.00
2022-08-05T15:05:17.482Z,4.68
2022-08-05T15:10:19.619Z,6.75
2022-08-05T15:15:55.222Z,6.30
2022-08-05T15:21:07.581Z,5.95
2022-08-05T15:26:32.203Z,4.78
2022-08-05T15:31:55.480Z,4.63
2022-08-05T15:37:19.367Z,5.60
2022-08-05T15:42:55.709Z,4.95
2022-08-05T15:47:58.966Z,5.78
2022-08-05T15:53:15.811Z,5.25
2022-08-05T15:58:23.282Z,4.72
2022-08-05T16:03:22.403Z,9.10
2022-08-05T16:08:19.621Z,3.53
2022-08-05T16:13:34.770Z,8.68
2022-08-05T16:24:41.247Z,15.50
2022-08-05T16:29:50.986Z,6.53
2022-08-05T16:34:52.347Z,3.58
2022-08-05T16:40:04.852Z,7.03
2022-08-05T16:46:06.566Z,3.67
2022-08-05T16:50:28.972Z,4.72
2022-08-05T16:55:46.344Z,6.43
2022-08-05T17:00:48.189Z,3.90
2022-08-05T17:05:59.821Z,4.72
2022-08-05T17:11:05.795Z,5.10
2022-08-05T17:16:30.155Z,4.72
2022-08-05T17:21:36.358Z,7.68
2022-08-05T17:26:40.805Z,5.28
2022-08-05T17:31:56.623Z,8.52
2022-08-05T17:42:28.495Z,6.30
2022-08-05T17:47:36.050Z,6.78
2022-08-05T17:52:56.327Z,7.75
2022-08-05T17:57:58.092Z,8.45
2022-08-05T18:02:57.352Z,7.37
2022-08-05T18:07:59.151Z,5.82
2022-08-05T18:12:56.770Z,9.23
2022-08-05T18:18:01.504Z,6.75
2022-08-05T18:23:09.487Z,5.70
2022-08-05T18:28:16.085Z,8.88
2022-08-05T18:33:22.984Z,13.18
2022-08-05T18:38:26.687Z,8.13
2022-08-05T18:43:31.584Z,6.55
2022-08-05T18:49:03.971Z,7.32
2022-08-05T18:54:13.357Z,6.15
2022-08-05T18:59:43.212Z,10.45
2022-08-05T19:04:32.770Z,7.22
2022-08-05T19:09:40.021Z,5.32
2022-08-05T19:14:59.719Z,7.25
2022-08-05T19:20:10.840Z,7.57
2022-08-05T19:25:29.675Z,5.90
2022-08-05T19:30:48.835Z,8.90
2022-08-05T19:35:56.586Z,6.05
2022-08-05T19:41:06.973Z,5.20
2022-08-05T19:46:29.130Z,7.72
2022-08-05T19:52:09.240Z,7.55
2022-08-05T19:56:51.523Z,5.10
2022-08-05T20:02:03.226Z,6.78
2022-08-05T20:07:10.304Z,8.30
2022-08-05T20:12:46.002Z,4.82
2022-08-05T20:17:59.141Z,8.13
2022-08-05T20:23:04.217Z,5.22
2022-08-05T20:28:06.637Z,5.68
2022-08-05T20:33:08.580Z,9.40
2022-08-05T20:38:11.258Z,5.30
2022-08-05T20:43:33.390Z,7.50
2022-08-05T20:48:43.890Z,5.65
2022-08-05T20:53:43.558Z,7.03
2022-08-05T20:59:00.026Z,6.95
2022-08-05T21:04:11.132Z,5.63
2022-08-05T21:09:15.309Z,5.90
2022-08-05T21:14:13.495Z,5.60
2022-08-05T21:19:12.753Z,4.93
2022-08-05T21:24:15.901Z,5.97
2022-08-05T21:29:16.811Z,5.20
2022-08-05T21:34:24.074Z,8.15
2022-08-05T21:39:29.033Z,5.30
2022-08-05T21:44:35.573Z,9.32
2022-08-05T21:49:59.397Z,6.32
2022-08-05T21:55:06.311Z,6.68
2022-08-05T22:00:11.761Z,5.80
2022-08-05T22:05:20.999Z,8.27
2022-08-05T22:10:31.051Z,6.03
2022-08-05T22:15:57.196Z,5.95
2022-08-05T22:20:51.721Z,7.35
2022-08-05T22:26:09.922Z,5.82
2022-08-05T22:31:12.430Z,5.38
2022-08-05T22:36:14.733Z,7.13
2022-08-05T22:41:12.500Z,5.85
2022-08-05T22:46:20.985Z,7.88
2022-08-05T22:51:23.220Z,6.95
2022-08-05T22:56:39.959Z,5.32
2022-08-05T23:01:50.798Z,6.70
2022-08-05T23:07:13.116Z,5.72
2022-08-05T23:12:12.372Z,6.07
2022-08-05T23:17:34.887Z,5.70
2022-08-05T23:22:35.353Z,6.32
2022-08-05T23:27:42.416Z,6.85
2022-08-05T23:32:57.574Z,8.60
2022-08-05T23:37:56.815Z,6.45
2022-08-05T23:42:57.022Z,7.07
2022-08-05T23:48:04.424Z,6.93
2022-08-05T23:53:04.321Z,8.30
2022-08-05T23:58:44.429Z,6.70
